Time;durP1;ratioP1;P1;durP2;ratioP2;P2;SDS_P1;SDS_P2;PMS_P1;PMS_P2;Temp;Humidity;BMP_temperature;BMP_pressure;BME280_temperature;BME280_humidity;BME280_pressure;Samples;Min_cycle;Max_cycle;Signal;HPM_P1;HPM_P2
2022/05/28 00:01:26;;;;;;;30.17;9.20;;;;;;;-145.76;100.00;65039.31;4929224;28;20490;-73
2022/05/28 00:03:54;;;;;;;39.47;10.90;;;;;;;-145.76;100.00;65039.31;4916761;28;20543;-73
2022/05/28 00:06:22;;;;;;;23.00;4.13;;;;;;;-145.76;100.00;65039.31;4943877;28;20044;-73
2022/05/28 00:08:48;;;;;;;24.83;6.30;;;;;;;-145.76;100.00;65039.31;4931045;28;20056;-73
2022/05/28 00:11:21;;;;;;;30.33;8.40;;;;;;;-145.76;100.00;65039.31;4947429;28;20062;-73
2022/05/28 00:13:47;;;;;;;34.92;12.20;;;;;;;-145.76;100.00;65039.31;4930605;28;20044;-73
2022/05/28 00:16:13;;;;;;;35.17;8.85;;;;;;;-145.76;100.00;65039.31;4941545;28;20054;-74
2022/05/28 00:18:40;;;;;;;24.08;7.68;;;;;;;-145.76;100.00;65039.31;4946857;28;20230;-73
2022/05/28 00:21:09;;;;;;;32.17;9.32;;;;;;;-145.76;100.00;65039.31;4911061;28;20061;-73
2022/05/28 00:23:35;;;;;;;24.88;7.90;;;;;;;-145.76;100.00;65039.31;4944122;28;20065;-73
2022/05/28 00:26:02;;;;;;;32.47;7.00;;;;;;;-145.76;100.00;65039.31;4926446;28;22333;-73
2022/05/28 00:28:27;;;;;;;27.98;7.78;;;;;;;-145.76;100.00;65039.31;4943418;28;20038;-72
2022/05/28 00:30:53;;;;;;;16.77;4.40;;;;;;;-145.76;100.00;65039.31;4931092;28;20068;-73
2022/05/28 00:33:18;;;;;;;18.92;4.25;;;;;;;-145.76;100.00;65039.31;4941450;28;20112;-72
2022/05/28 00:35:43;;;;;;;26.35;6.35;;;;;;;-145.76;100.00;65039.31;4939528;28;20582;-73
2022/05/28 00:38:09;;;;;;;15.13;4.20;;;;;;;-145.76;100.00;65039.31;4933160;28;20521;-73
2022/05/28 00:40:34;;;;;;;24.50;4.72;;;;;;;-145.76;100.00;65039.31;4946994;28;21469;-72
2022/05/28 00:43:02;;;;;;;25.42;6.22;;;;;;;-145.76;100.00;65039.31;4930517;28;20046;-73
2022/05/28 00:45:30;;;;;;;25.45;7.78;;;;;;;-145.76;100.00;65039.31;4954693;28;21004;-73
2022/05/28 00:47:57;;;;;;;32.47;9.40;;;;;;;-145.76;100.00;65039.31;4932049;28;20125;-73
2022/05/28 00:50:23;;;;;;;35.67;8.00;;;;;;;-145.76;100.00;65039.31;4946671;28;20490;-73
2022/05/28 00:52:48;;;;;;;30.50;8.30;;;;;;;-145.76;100.00;65039.31;4929405;28;20065;-73
2022/05/28 00:55:15;;;;;;;30.55;9.30;;;;;;;-145.76;100.00;65039.31;4945497;28;20134;-73
2022/05/28 00:57:42;;;;;;;23.35;6.53;;;;;;;-145.76;100.00;65039.31;4944828;28;20044;-73
2022/05/28 01:00:14;;;;;;;27.17;7.35;;;;;;;-145.76;100.00;65039.31;4932368;28;20100;-73
2022/05/28 01:02:51;;;;;;;30.58;7.22;;;;;;;-145.76;100.00;65039.31;4947292;28;20030;-73
2022/05/28 01:05:20;;;;;;;35.28;10.48;;;;;;;-145.76;100.00;65039.31;4927297;28;20096;-73
2022/05/28 01:08:37;;;;;;;33.70;9.30;;;;;;;-145.76;100.00;65039.31;4941380;28;20041;-73
2022/05/28 01:11:23;;;;;;;37.85;8.95;;;;;;;-145.76;100.00;65039.31;4916546;28;20045;-73
2022/05/28 01:14:23;;;;;;;30.67;10.10;;;;;;;-145.76;100.00;65039.31;4942922;28;20060;-73
2022/05/28 01:16:52;;;;;;;35.40;10.18;;;;;;;-145.76;100.00;65039.31;4930227;28;20529;-73
2022/05/28 01:19:41;;;;;;;35.33;8.73;;;;;;;-145.76;100.00;65039.31;4941542;28;20083;-73
2022/05/28 01:22:10;;;;;;;25.52;6.93;;;;;;;-145.76;100.00;65039.31;4929056;28;20052;-73
2022/05/28 01:25:21;;;;;;;27.55;7.90;;;;;;;-145.76;100.00;65039.31;4939644;28;20065;-73
2022/05/28 01:27:50;;;;;;;35.45;10.32;;;;;;;-145.76;100.00;65039.31;4929990;28;20092;-73
2022/05/28 01:30:16;;;;;;;30.85;8.70;;;;;;;-145.76;100.00;65039.31;4945939;28;20068;-72
2022/05/28 01:32:48;;;;;;;33.38;8.63;;;;;;;-145.76;100.00;65039.31;4932399;28;20052;-73
2022/05/28 01:35:16;;;;;;;32.22;8.45;;;;;;;-145.76;100.00;65039.31;4942921;28;20057;-72
2022/05/28 01:37:43;;;;;;;25.17;7.82;;;;;;;-145.76;100.00;65039.31;4929274;28;20215;-73
2022/05/28 01:40:09;;;;;;;41.67;10.93;;;;;;;-145.76;100.00;65039.31;4943655;28;20033;-73
2022/05/28 01:42:37;;;;;;;33.17;6.47;;;;;;;-145.76;100.00;65039.31;4929381;28;20148;-73
2022/05/28 01:45:04;;;;;;;15.48;3.70;;;;;;;-145.76;100.00;65039.31;4944323;28;20437;-73
2022/05/28 01:47:31;;;;;;;15.50;3.95;;;;;;;-145.76;100.00;65039.31;4923444;28;20038;-72
2022/05/28 01:49:57;;;;;;;18.70;3.05;;;;;;;-145.76;100.00;65039.31;4928930;28;20041;-72
2022/05/28 01:52:24;;;;;;;21.00;2.78;;;;;;;-145.76;100.00;65039.31;4943954;28;20037;-73
2022/05/28 01:54:51;;;;;;;13.88;2.60;;;;;;;-145.76;100.00;65039.31;4930522;28;20557;-73
2022/05/28 01:57:16;;;;;;;17.15;3.25;;;;;;;-145.76;100.00;65039.31;4942428;28;20029;-73
2022/05/28 01:59:43;;;;;;;24.00;4.45;;;;;;;-145.76;100.00;65039.31;4926546;28;20046;-73
2022/05/28 02:02:11;;;;;;;23.45;5.90;;;;;;;-145.76;100.00;65039.31;4945757;28;20088;-73
2022/05/28 02:04:38;;;;;;;29.55;7.65;;;;;;;-145.76;100.00;65039.31;4926672;28;20116;-72
2022/05/28 02:07:05;;;;;;;23.27;6.82;;;;;;;-145.76;100.00;65039.31;4959133;28;20034;-73
2022/05/28 02:09:48;;;;;;;24.02;6.07;;;;;;;-145.76;100.00;65039.31;4943570;28;20034;-73
2022/05/28 02:12:33;;;;;;;29.30;7.05;;;;;;;-145.76;100.00;65039.31;4928905;28;22417;-72
2022/05/28 02:15:22;;;;;;;40.20;7.78;;;;;;;-145.76;100.00;65039.31;4938354;28;20041;-73
2022/05/28 02:17:56;;;;;;;28.77;8.77;;;;;;;-145.76;100.00;65039.31;4933718;28;20064;-73
2022/05/28 02:20:27;;;;;;;39.97;8.88;;;;;;;-145.76;100.00;65039.31;4938771;28;20332;-73
2022/05/28 02:22:57;;;;;;;29.83;8.23;;;;;;;-145.76;100.00;65039.31;4925560;28;20074;-73
2022/05/28 02:25:38;;;;;;;36.65;9.43;;;;;;;-145.76;100.00;65039.31;4942746;28;20034;-73
2022/05/28 02:28:04;;;;;;;35.50;9.90;;;;;;;-145.76;100.00;65039.31;4921468;28;20041;-73
2022/05/28 02:30:31;;;;;;;36.17;8.30;;;;;;;-145.76;100.00;65039.31;4936564;28;20034;-73
2022/05/28 02:33:03;;;;;;;43.30;10.30;;;;;;;-145.76;100.00;65039.31;4921080;28;20049;-73
2022/05/28 02:35:29;;;;;;;39.97;10.25;;;;;;;-145.76;100.00;65039.31;4940329;28;20587;-73
2022/05/28 02:37:55;;;;;;;31.65;7.95;;;;;;;-145.76;100.00;65039.31;4938852;28;20034;-73
2022/05/28 02:40:20;;;;;;;31.55;9.35;;;;;;;-145.76;100.00;65039.31;4938214;28;20049;-73
2022/05/28 02:42:46;;;;;;;26.67;8.00;;;;;;;-145.76;100.00;65039.31;4940102;28;20545;-73
2022/05/28 02:45:11;;;;;;;33.42;9.13;;;;;;;-145.76;100.00;65039.31;4924162;28;20038;-73
2022/05/28 02:47:36;;;;;;;35.30;10.32;;;;;;;-145.76;100.00;65039.31;4942182;28;20137;-73
2022/05/28 02:50:02;;;;;;;28.60;7.40;;;;;;;-145.76;100.00;65039.31;4927873;28;20138;-73
2022/05/28 02:52:28;;;;;;;32.97;8.02;;;;;;;-145.76;100.00;65039.31;4943228;28;20494;-73
2022/05/28 02:54:53;;;;;;;26.70;7.65;;;;;;;-145.76;100.00;65039.31;4929271;28;20045;-73
2022/05/28 02:57:19;;;;;;;31.65;7.95;;;;;;;-145.76;100.00;65039.31;4944515;28;20041;-73
2022/05/28 02:59:44;;;;;;;19.80;4.15;;;;;;;-145.76;100.00;65039.31;4928611;28;20084;-74
2022/05/28 03:02:10;;;;;;;28.17;6.40;;;;;;;-145.76;100.00;65039.31;4945230;28;20172;-74
2022/05/28 03:04:35;;;;;;;13.98;2.80;;;;;;;-145.76;100.00;65039.31;4941680;28;22708;-74
2022/05/28 03:07:01;;;;;;;29.25;6.35;;;;;;;-145.76;100.00;65039.31;4930130;28;20045;-74
2022/05/28 03:09:26;;;;;;;32.72;8.30;;;;;;;-145.76;100.00;65039.31;4942858;28;20045;-74
2022/05/28 03:11:51;;;;;;;28.50;7.13;;;;;;;-145.76;100.00;65039.31;4929412;28;20176;-74
2022/05/28 03:14:17;;;;;;;17.95;3.80;;;;;;;-145.76;100.00;65039.31;4909799;28;23882;-74
2022/05/28 03:16:43;;;;;;;25.95;5.20;;;;;;;-145.76;100.00;65039.31;4926320;28;20062;-74
2022/05/28 03:19:09;;;;;;;24.88;7.15;;;;;;;-145.76;100.00;65039.31;4942805;28;22386;-74
2022/05/28 03:21:34;;;;;;;26.65;5.97;;;;;;;-145.76;100.00;65039.31;4941537;28;20133;-73
2022/05/28 03:24:00;;;;;;;24.02;6.00;;;;;;;-145.76;100.00;65039.31;4924226;28;20136;-73
2022/05/28 03:26:27;;;;;;;27.35;5.60;;;;;;;-145.76;100.00;65039.31;4928214;28;20113;-73
2022/05/28 03:28:53;;;;;;;25.27;4.55;;;;;;;-145.76;100.00;65039.31;4915680;28;20048;-73
2022/05/28 03:31:19;;;;;;;25.30;6.38;;;;;;;-145.76;100.00;65039.31;4945750;28;21964;-73
2022/05/28 03:33:45;;;;;;;25.50;5.78;;;;;;;-145.76;100.00;65039.31;4932366;28;22632;-73
2022/05/28 03:36:10;;;;;;;34.88;8.48;;;;;;;-145.76;100.00;65039.31;4946238;28;20050;-73
2022/05/28 03:38:36;;;;;;;34.90;7.80;;;;;;;-145.76;100.00;65039.31;4923544;28;20156;-74
2022/05/28 03:41:03;;;;;;;40.63;8.73;;;;;;;-145.76;100.00;65039.31;4946481;28;20042;-73
2022/05/28 03:43:29;;;;;;;35.65;9.80;;;;;;;-145.76;100.00;65039.31;4928977;28;20140;-74
2022/05/28 03:45:55;;;;;;;38.03;6.75;;;;;;;-145.76;100.00;65039.31;4909726;28;20762;-73
2022/05/28 03:48:20;;;;;;;33.80;8.32;;;;;;;-145.76;100.00;65039.31;4948183;28;20035;-73
2022/05/28 03:50:46;;;;;;;29.05;7.45;;;;;;;-145.76;100.00;65039.31;4924188;28;20038;-74
2022/05/28 03:53:11;;;;;;;29.20;7.65;;;;;;;-145.76;100.00;65039.31;4955347;28;20125;-73
2022/05/28 03:55:38;;;;;;;44.28;12.27;;;;;;;-145.76;100.00;65039.31;4930326;28;20139;-73
2022/05/28 03:58:04;;;;;;;43.53;10.43;;;;;;;-145.76;100.00;65039.31;4943434;28;20521;-73
2022/05/28 04:00:30;;;;;;;40.47;10.20;;;;;;;-145.76;100.00;65039.31;4940994;28;20026;-73
2022/05/28 04:02:57;;;;;;;31.45;9.27;;;;;;;-145.76;100.00;65039.31;4934654;28;20057;-73
2022/05/28 04:05:23;;;;;;;38.78;8.60;;;;;;;-145.76;100.00;65039.31;4941165;28;20366;-73
2022/05/28 04:07:48;;;;;;;42.40;9.15;;;;;;;-145.76;100.00;65039.31;4927833;28;20041;-74
2022/05/28 04:10:14;;;;;;;36.15;9.75;;;;;;;-145.76;100.00;65039.31;4948780;28;21162;-74
2022/05/28 04:12:40;;;;;;;31.05;7.35;;;;;;;-145.76;100.00;65039.31;4928449;28;20463;-76
2022/05/28 04:15:06;;;;;;;32.88;8.82;;;;;;;-145.76;100.00;65039.31;4944269;28;20121;-76
2022/05/28 04:17:32;;;;;;;37.22;8.90;;;;;;;-145.76;100.00;65039.31;4939334;28;20054;-73
2022/05/28 04:19:57;;;;;;;39.83;9.27;;;;;;;-145.76;100.00;65039.31;4948829;28;20165;-73
2022/05/28 04:22:22;;;;;;;35.30;9.18;;;;;;;-145.76;100.00;65039.31;4945506;28;21627;-73
2022/05/28 04:24:48;;;;;;;32.80;8.63;;;;;;;-145.76;100.00;65039.31;4930767;28;20113;-75
2022/05/28 04:27:13;;;;;;;29.15;9.35;;;;;;;-145.76;100.00;65039.31;4945215;28;20034;-74
2022/05/28 04:29:39;;;;;;;33.50;8.80;;;;;;;-145.76;100.00;65039.31;4932723;28;20046;-74
2022/05/28 04:32:05;;;;;;;35.15;10.00;;;;;;;-145.76;100.00;65039.31;4944491;28;20034;-74
2022/05/28 04:34:30;;;;;;;42.28;11.10;;;;;;;-145.76;100.00;65039.31;4911286;28;21303;-74
2022/05/28 04:36:55;;;;;;;24.40;6.78;;;;;;;-145.76;100.00;65039.31;4941653;28;20128;-74
2022/05/28 04:39:21;;;;;;;17.38;5.32;;;;;;;-145.76;100.00;65039.31;4935411;28;20038;-74
2022/05/28 04:41:46;;;;;;;33.40;8.25;;;;;;;-145.76;100.00;65039.31;4935607;28;20049;-74
2022/05/28 04:44:12;;;;;;;32.17;7.50;;;;;;;-145.76;100.00;65039.31;4946924;28;20069;-74
2022/05/28 04:46:37;;;;;;;23.23;6.80;;;;;;;-145.76;100.00;65039.31;4910978;28;20042;-74
2022/05/28 04:49:04;;;;;;;27.08;6.55;;;;;;;-145.76;100.00;65039.31;4946071;28;20125;-74
2022/05/28 04:51:30;;;;;;;33.78;7.32;;;;;;;-145.76;100.00;65039.31;4929410;28;20149;-74
2022/05/28 04:53:55;;;;;;;38.28;8.27;;;;;;;-145.76;100.00;65039.31;4934384;28;20048;-74
2022/05/28 04:56:21;;;;;;;32.63;7.35;;;;;;;-145.76;100.00;65039.31;4922495;28;20049;-73
2022/05/28 04:58:46;;;;;;;30.60;7.20;;;;;;;-145.76;100.00;65039.31;4941387;28;20046;-74
2022/05/28 05:01:13;;;;;;;32.97;7.90;;;;;;;-145.76;100.00;65039.31;4940183;28;20084;-73
2022/05/28 05:03:38;;;;;;;27.58;6.32;;;;;;;-145.76;100.00;65039.31;4943466;28;20046;-74
2022/05/28 05:06:04;;;;;;;24.25;5.15;;;;;;;-145.76;100.00;65039.31;4917641;28;20035;-74
2022/05/28 05:08:30;;;;;;;32.55;7.63;;;;;;;-145.76;100.00;65039.31;4926511;28;20579;-74
2022/05/28 05:10:56;;;;;;;17.95;4.30;;;;;;;-145.76;100.00;65039.31;4927490;28;20121;-73
2022/05/28 05:13:22;;;;;;;32.60;7.53;;;;;;;-145.76;100.00;65039.31;4929504;28;20347;-74
2022/05/28 05:15:47;;;;;;;27.50;6.97;;;;;;;-145.76;100.00;65039.31;4956446;28;21239;-73
2022/05/28 05:18:12;;;;;;;21.50;4.50;;;;;;;-145.76;100.00;65039.31;4909458;28;20044;-74
2022/05/28 05:20:38;;;;;;;30.55;6.10;;;;;;;-145.76;100.00;65039.31;4944500;28;20025;-74
2022/05/28 05:23:04;;;;;;;30.75;5.72;;;;;;;-145.76;100.00;65039.31;4944705;28;20045;-74
2022/05/28 05:25:29;;;;;;;21.48;4.70;;;;;;;-145.76;100.00;65039.31;4927671;28;20045;-73
2022/05/28 05:27:54;;;;;;;26.83;5.95;;;;;;;-145.76;100.00;65039.31;4946464;28;20033;-73
2022/05/28 05:30:20;;;;;;;22.52;6.53;;;;;;;-145.76;100.00;65039.31;4911704;28;20064;-72
2022/05/28 05:32:45;;;;;;;21.60;6.35;;;;;;;-145.76;100.00;65039.31;4940877;28;20113;-73
2022/05/28 05:35:11;;;;;;;21.98;5.38;;;;;;;-145.76;100.00;65039.31;4926727;28;20046;-73
2022/05/28 05:37:37;;;;;;;22.30;6.13;;;;;;;-145.76;100.00;65039.31;4945708;28;20037;-73
2022/05/28 05:40:03;;;;;;;22.23;4.80;;;;;;;-145.76;100.00;65039.31;4943308;28;20190;-72
2022/05/28 05:42:34;;;;;;;19.38;3.97;;;;;;;-145.76;100.00;65039.31;4914611;28;22787;-72
2022/05/28 05:44:59;;;;;;;19.63;4.75;;;;;;;-145.76;100.00;65039.31;4940350;28;20034;-72
2022/05/28 05:47:25;;;;;;;22.35;4.45;;;;;;;-145.76;100.00;65039.31;4927938;28;20088;-74
2022/05/28 05:49:50;;;;;;;20.85;3.83;;;;;;;-145.76;100.00;65039.31;4944856;28;20073;-72
2022/05/28 05:52:16;;;;;;;20.80;4.20;;;;;;;-145.76;100.00;65039.31;4929776;28;20251;-74
2022/05/28 05:54:42;;;;;;;22.17;4.45;;;;;;;-145.76;100.00;65039.31;4943992;28;21183;-73
2022/05/28 05:57:08;;;;;;;22.38;3.75;;;;;;;-145.76;100.00;65039.31;4927987;28;20140;-73
2022/05/28 05:59:34;;;;;;;20.00;3.13;;;;;;;-145.76;100.00;65039.31;4936214;28;20045;-74
2022/05/28 06:01:59;;;;;;;19.08;3.75;;;;;;;-145.76;100.00;65039.31;4952277;28;20040;-73
2022/05/28 06:04:24;;;;;;;26.45;5.35;;;;;;;-145.76;100.00;65039.31;4902625;28;20044;-74
2022/05/28 06:06:50;;;;;;;21.77;3.83;;;;;;;-145.76;100.00;65039.31;4943314;28;20034;-73
2022/05/28 06:09:18;;;;;;;22.70;5.95;;;;;;;-145.76;100.00;65039.31;4928058;28;20145;-72
2022/05/28 06:11:43;;;;;;;19.58;4.53;;;;;;;-145.76;100.00;65039.31;4943441;28;20111;-73
2022/05/28 06:14:09;;;;;;;31.75;8.30;;;;;;;-145.76;100.00;65039.31;4929441;28;21470;-73
2022/05/28 06:16:34;;;;;;;18.88;4.22;;;;;;;-145.76;100.00;65039.31;4931349;28;20576;-73
2022/05/28 06:19:01;;;;;;;20.38;4.60;;;;;;;-145.76;100.00;65039.31;4930596;28;21561;-71
2022/05/28 06:21:26;;;;;;;19.13;4.85;;;;;;;-145.76;100.00;65039.31;4942128;28;20149;-73
2022/05/28 06:23:52;;;;;;;17.85;4.57;;;;;;;-145.76;100.00;65039.31;4942322;28;21007;-71
2022/05/28 06:26:17;;;;;;;26.40;4.90;;;;;;;-145.76;100.00;65039.31;4928350;28;20038;-74
2022/05/28 06:28:43;;;;;;;26.13;4.28;;;;;;;-145.76;100.00;65039.31;4945038;28;20564;-73
2022/05/28 06:31:10;;;;;;;22.63;4.70;;;;;;;-145.76;100.00;65039.31;4930598;28;20073;-74
2022/05/28 06:33:37;;;;;;;18.65;3.60;;;;;;;-145.76;100.00;65039.31;4941328;28;20077;-74
2022/05/28 06:36:04;;;;;;;22.48;4.70;;;;;;;-145.76;100.00;65039.31;4931377;28;20057;-74
2022/05/28 06:38:30;;;;;;;20.40;4.97;;;;;;;-145.76;100.00;65039.31;4917929;28;20056;-73
2022/05/28 06:40:56;;;;;;;26.13;4.30;;;;;;;-145.76;100.00;65039.31;4943561;28;20113;-74
2022/05/28 06:43:22;;;;;;;17.85;3.90;;;;;;;-145.76;100.00;65039.31;4931374;28;20038;-74
2022/05/28 06:45:48;;;;;;;18.60;4.07;;;;;;;-145.76;100.00;65039.31;4940806;28;20049;-74
2022/05/28 06:48:14;;;;;;;19.27;3.05;;;;;;;-145.76;100.00;65039.31;4929822;28;20393;-73
2022/05/28 06:53:25;;;;;;;21.73;4.28;;;;;;;-145.76;100.00;65039.31;4939012;28;20127;-73
2022/05/28 06:55:50;;;;;;;15.30;3.13;;;;;;;-145.76;100.00;65039.31;4940706;28;20438;-72
2022/05/28 06:58:16;;;;;;;17.15;3.35;;;;;;;-145.76;100.00;65039.31;4928444;28;20041;-72
2022/05/28 07:00:41;;;;;;;15.57;2.95;;;;;;;-145.76;100.00;65039.31;4944334;28;20041;-72
2022/05/28 07:03:13;;;;;;;23.25;5.30;;;;;;;-145.76;100.00;65039.31;4939491;28;20030;-72
2022/05/28 07:05:39;;;;;;;19.33;3.63;;;;;;;-145.76;100.00;65039.31;4942444;28;20038;-72
2022/05/28 07:08:05;;;;;;;16.55;3.28;;;;;;;-145.76;100.00;65039.31;4948023;28;20432;-72
2022/05/28 07:10:30;;;;;;;15.13;3.17;;;;;;;-145.76;100.00;65039.31;4929426;28;20060;-71
2022/05/28 07:12:56;;;;;;;20.95;3.28;;;;;;;-145.76;100.00;65039.31;4928210;28;24069;-71
2022/05/28 07:15:22;;;;;;;22.67;3.33;;;;;;;-145.76;100.00;65039.31;4932682;28;20073;-71
2022/05/28 07:17:48;;;;;;;25.60;3.45;;;;;;;-145.76;100.00;65039.31;4948245;28;20116;-71
2022/05/28 07:20:13;;;;;;;18.10;3.22;;;;;;;-145.76;100.00;65039.31;4921493;28;20045;-72
2022/05/28 07:22:39;;;;;;;19.75;3.92;;;;;;;-145.76;100.00;65039.31;4943849;28;20073;-71
2022/05/28 07:25:08;;;;;;;19.17;3.15;;;;;;;-145.76;100.00;65039.31;4948580;28;20033;-72
2022/05/28 07:27:33;;;;;;;15.50;3.88;;;;;;;-145.76;100.00;65039.31;4913000;28;20088;-71
2022/05/28 07:29:59;;;;;;;16.05;4.15;;;;;;;-145.76;100.00;65039.31;4944202;28;20113;-71
2022/05/28 07:32:29;;;;;;;21.67;3.80;;;;;;;-145.76;100.00;65039.31;4933154;28;20057;-70
2022/05/28 07:34:55;;;;;;;16.05;3.55;;;;;;;-145.76;100.00;65039.31;4947668;28;20038;-71
2022/05/28 07:37:20;;;;;;;21.58;3.35;;;;;;;-145.76;100.00;65039.31;4941157;28;20045;-71
2022/05/28 07:39:46;;;;;;;16.23;2.95;;;;;;;-145.76;100.00;65039.31;4947032;28;20045;-71
2022/05/28 07:42:11;;;;;;;21.35;2.97;;;;;;;-145.76;100.00;65039.31;4933204;28;20558;-72
2022/05/28 07:44:37;;;;;;;16.65;3.17;;;;;;;-145.76;100.00;65039.31;4944725;28;20651;-72
2022/05/28 07:47:06;;;;;;;20.52;3.65;;;;;;;-145.76;100.00;65039.31;4933728;28;20049;-74
2022/05/28 07:49:31;;;;;;;20.45;3.63;;;;;;;-145.76;100.00;65039.31;4940847;28;20068;-74
2022/05/28 07:51:57;;;;;;;30.38;4.57;;;;;;;-145.76;100.00;65039.31;4964211;28;20679;-74
2022/05/28 07:54:22;;;;;;;26.17;3.75;;;;;;;-145.76;100.00;65039.31;4926924;28;20037;-74
2022/05/28 07:56:47;;;;;;;21.75;2.97;;;;;;;-145.76;100.00;65039.31;4940716;28;21185;-74
2022/05/28 07:59:14;;;;;;;14.73;3.42;;;;;;;-145.76;100.00;65039.31;4925673;28;21136;-74
2022/05/28 08:01:40;;;;;;;19.00;3.47;;;;;;;-145.76;100.00;65039.31;4946140;28;21107;-74
2022/05/28 08:04:06;;;;;;;19.33;3.88;;;;;;;-145.76;100.00;65039.31;4927671;28;20557;-73
2022/05/28 08:06:32;;;;;;;20.42;3.90;;;;;;;-145.76;100.00;65039.31;4928020;28;20136;-74
2022/05/28 08:08:57;;;;;;;25.67;3.97;;;;;;;-145.76;100.00;65039.31;4944411;28;20048;-73
2022/05/28 08:11:23;;;;;;;18.92;3.33;;;;;;;-145.76;100.00;65039.31;4929540;28;21344;-73
2022/05/28 08:13:49;;;;;;;23.48;4.18;;;;;;;-145.76;100.00;65039.31;4946588;28;20042;-73
2022/05/28 08:16:15;;;;;;;27.77;5.25;;;;;;;-145.76;100.00;65039.31;4931956;28;20050;-73
2022/05/28 08:18:41;;;;;;;23.50;4.43;;;;;;;-145.76;100.00;65039.31;4943805;28;20141;-73
2022/05/28 08:23:52;;;;;;;16.02;2.97;;;;;;;-145.76;100.00;65039.31;4943793;28;24401;-71
2022/05/28 08:26:19;;;;;;;16.77;3.20;;;;;;;-145.76;100.00;65039.31;4919879;28;20126;-72
2022/05/28 08:28:46;;;;;;;22.55;4.47;;;;;;;-145.76;100.00;65039.31;4953276;28;20057;-71
2022/05/28 08:31:11;;;;;;;23.05;4.72;;;;;;;-145.76;100.00;65039.31;4942321;28;20072;-73
2022/05/28 08:33:37;;;;;;;27.30;5.20;;;;;;;-145.76;100.00;65039.31;4896898;28;20037;-73
2022/05/28 08:36:02;;;;;;;15.32;3.60;;;;;;;-145.76;100.00;65039.31;4945322;28;20107;-73
2022/05/28 08:38:28;;;;;;;22.10;3.53;;;;;;;-145.76;100.00;65039.31;4928482;28;20038;-73
2022/05/28 08:41:14;;;;;;;24.27;3.55;;;;;;;-145.76;100.00;65039.31;4943004;28;20072;-73
2022/05/28 08:43:46;;;;;;;16.92;3.45;;;;;;;-145.76;100.00;65039.31;4928333;28;20046;-73
2022/05/28 08:46:13;;;;;;;21.13;6.82;;;;;;;-145.76;100.00;65039.31;4925187;28;20041;-73
2022/05/28 08:48:45;;;;;;;17.15;3.08;;;;;;;-145.76;100.00;65039.31;4943808;28;20070;-73
2022/05/28 08:51:16;;;;;;;14.82;2.88;;;;;;;-145.76;100.00;65039.31;4945026;28;20116;-73
2022/05/28 08:53:55;;;;;;;21.95;3.55;;;;;;;-145.76;100.00;65039.31;4942174;28;23457;-75
2022/05/28 08:56:22;;;;;;;12.75;2.60;;;;;;;-145.76;100.00;65039.31;4945364;28;20133;-73
2022/05/28 08:58:52;;;;;;;12.75;2.55;;;;;;;-145.76;100.00;65039.31;4946856;28;20045;-73
2022/05/28 09:01:19;;;;;;;15.95;3.50;;;;;;;-145.76;100.00;65039.31;4928633;28;20568;-72
2022/05/28 09:03:54;;;;;;;12.95;2.55;;;;;;;-145.76;100.00;65039.31;4950491;28;20060;-72
2022/05/28 09:06:41;;;;;;;15.45;2.67;;;;;;;-145.76;100.00;65039.31;4928690;28;20062;-72
2022/05/28 09:09:09;;;;;;;13.32;3.40;;;;;;;-145.76;100.00;65039.31;4943557;28;20038;-71
2022/05/28 09:11:48;;;;;;;16.25;2.78;;;;;;;-145.76;100.00;65039.31;4940285;28;20055;-70
2022/05/28 09:14:24;;;;;;;17.15;2.70;;;;;;;-145.76;100.00;65039.31;4945106;28;20034;-71
2022/05/28 09:16:55;;;;;;;16.00;2.97;;;;;;;-145.76;100.00;65039.31;4930037;28;20141;-71
2022/05/28 09:19:27;;;;;;;13.77;3.38;;;;;;;-145.76;100.00;65039.31;4945668;28;20113;-70
2022/05/28 09:21:52;;;;;;;14.52;2.75;;;;;;;-145.76;100.00;65039.31;4922894;28;20095;-69
2022/05/28 09:24:21;;;;;;;17.73;4.18;;;;;;;-145.76;100.00;65039.31;4944770;28;23614;-71
2022/05/28 09:27:02;;;;;;;18.95;3.35;;;;;;;-145.76;100.00;65039.31;4942005;28;20038;-71
2022/05/28 09:29:43;;;;;;;25.60;5.20;;;;;;;-145.76;100.00;65039.31;4941932;28;20108;-73
2022/05/28 09:32:17;;;;;;;24.40;5.43;;;;;;;-145.76;100.00;65039.31;4945933;28;20041;-72
2022/05/28 09:35:07;;;;;;;24.33;3.72;;;;;;;-145.76;100.00;65039.31;4927338;28;20087;-71
2022/05/28 09:37:55;;;;;;;17.85;5.10;;;;;;;-145.76;100.00;65039.31;4940362;28;20056;-71
2022/05/28 09:40:50;;;;;;;22.65;3.35;;;;;;;-145.76;100.00;65039.31;4930694;28;20041;-71
2022/05/28 09:43:23;;;;;;;20.08;3.42;;;;;;;-145.76;100.00;65039.31;4940210;28;20040;-71
2022/05/28 09:46:06;;;;;;;20.00;3.65;;;;;;;-145.76;100.00;65039.31;4928219;28;20064;-71
2022/05/28 09:48:32;;;;;;;17.85;3.55;;;;;;;-145.76;100.00;65039.31;4943513;28;20034;-71
2022/05/28 09:50:57;;;;;;;17.38;4.07;;;;;;;-145.76;100.00;65039.31;4931524;28;20042;-71
2022/05/28 09:56:36;;;;;;;19.80;3.65;;;;;;;-145.76;100.00;65039.31;4929896;28;20058;-70
2022/05/28 09:59:32;;;;;;;16.55;3.75;;;;;;;-145.76;100.00;65039.31;4927792;28;20041;-70
2022/05/28 10:02:26;;;;;;;15.82;3.17;;;;;;;-145.76;100.00;65039.31;4927341;28;20064;-70
2022/05/28 10:04:55;;;;;;;;;;;;;;;-145.76;100.00;65039.31;4941620;28;20135;-71
2022/05/28 10:07:42;;;;;;;12.73;2.63;;;;;;;-145.76;100.00;65039.31;4919201;28;19932;-69
2022/05/28 10:10:12;;;;;;;17.45;2.75;;;;;;;-145.76;100.00;65039.31;4940734;28;20038;-70
2022/05/28 10:12:38;;;;;;;18.52;2.78;;;;;;;-145.76;100.00;65039.31;4933906;28;20045;-70
2022/05/28 10:15:11;;;;;;;21.45;5.80;;;;;;;-145.76;100.00;65039.31;4940697;28;21534;-70
2022/05/28 10:17:36;;;;;;;13.77;2.78;;;;;;;-145.76;100.00;65039.31;4932707;28;20053;-70
2022/05/28 10:20:05;;;;;;;13.32;2.33;;;;;;;-145.76;100.00;65039.31;4957211;28;20041;-70
2022/05/28 10:22:31;;;;;;;16.08;2.50;;;;;;;-145.76;100.00;65039.31;4927357;28;20077;-70
2022/05/28 10:25:00;;;;;;;17.25;3.00;;;;;;;-145.76;100.00;65039.31;4927615;28;20030;-70
2022/05/28 10:27:46;;;;;;;15.80;2.85;;;;;;;-145.76;100.00;65039.31;4941235;28;20034;-70
2022/05/28 10:30:26;;;;;;;14.50;2.65;;;;;;;-145.76;100.00;65039.31;4929533;28;20065;-70
2022/05/28 10:32:53;;;;;;;23.38;3.15;;;;;;;-145.76;100.00;65039.31;4938502;28;20037;-70
2022/05/28 10:35:29;;;;;;;16.42;2.45;;;;;;;-145.76;100.00;65039.31;4939081;28;20041;-70
2022/05/28 10:38:16;;;;;;;12.18;2.15;;;;;;;-145.76;100.00;65039.31;4942527;28;20128;-70
2022/05/28 10:40:49;;;;;;;11.27;2.63;;;;;;;-145.76;100.00;65039.31;4926117;28;20038;-70
2022/05/28 10:43:39;;;;;;;17.05;2.78;;;;;;;-145.76;100.00;65039.31;4941100;28;20109;-70
2022/05/28 10:46:10;;;;;;;12.45;2.40;;;;;;;-145.76;100.00;65039.31;4924115;28;20041;-70
2022/05/28 10:49:00;;;;;;;14.20;2.50;;;;;;;-145.76;100.00;65039.31;4943337;28;20038;-71
2022/05/28 10:51:34;;;;;;;10.38;1.70;;;;;;;-145.76;100.00;65039.31;4924445;28;20137;-71
2022/05/28 10:54:16;;;;;;;16.27;3.30;;;;;;;-145.76;100.00;65039.31;4942202;28;20113;-71
2022/05/28 10:56:52;;;;;;;11.30;2.33;;;;;;;-145.76;100.00;65039.31;4928188;28;20054;-70
2022/05/28 10:59:44;;;;;;;12.43;2.97;;;;;;;-145.76;100.00;65039.31;4943230;28;20037;-70
2022/05/28 11:02:47;;;;;;;8.48;2.08;;;;;;;-145.76;100.00;65039.31;4928043;28;20041;-71
2022/05/28 11:05:18;;;;;;;20.55;2.42;;;;;;;-145.76;100.00;65039.31;4928208;28;20036;-71
2022/05/28 11:07:55;;;;;;;12.80;2.70;;;;;;;-145.76;100.00;65039.31;4890008;28;20066;-71
2022/05/28 11:10:27;;;;;;;12.23;2.58;;;;;;;-145.76;100.00;65039.31;4941870;28;20042;-71
2022/05/28 11:12:57;;;;;;;12.63;2.80;;;;;;;-145.76;100.00;65039.31;4929981;28;20049;-69
2022/05/28 11:15:37;;;;;;;13.77;2.65;;;;;;;-145.76;100.00;65039.31;4944299;28;20064;-70
2022/05/28 11:18:11;;;;;;;17.33;3.38;;;;;;;-145.76;100.00;65039.31;4927121;28;20042;-70
2022/05/28 11:20:39;;;;;;;16.98;2.70;;;;;;;-145.76;100.00;65039.31;4945071;28;20049;-70